createdAt,value
2019-04-01T00:00:48.124Z,19.50
2019-04-01T00:06:03.731Z,19.50
2019-04-01T00:11:19.406Z,19.40
2019-04-01T00:16:35.119Z,19.30
2019-04-01T00:21:50.541Z,19.20
2019-04-01T00:27:06.025Z,19.10
2019-04-01T00:32:21.675Z,19.00
2019-04-01T00:37:37.498Z,18.90
2019-04-01T00:43:01.043Z,18.80
2019-04-01T00:48:16.669Z,18.70
2019-04-01T00:53:32.702Z,18.60
2019-04-01T00:58:48.700Z,18.50
2019-04-01T01:04:04.588Z,18.40
2019-04-01T01:09:20.208Z,18.40
2019-04-01T01:14:36.083Z,18.20
2019-04-01T01:19:51.814Z,18.20
2019-04-01T01:25:07.549Z,18.10
2019-04-01T01:30:23.327Z,17.90
2019-04-01T01:35:38.984Z,17.90
2019-04-01T01:40:55.066Z,17.80
2019-04-01T01:46:11.045Z,17.80
2019-04-01T01:51:26.987Z,17.60
2019-04-01T01:56:42.544Z,17.50
2019-04-01T02:01:58.197Z,17.50
2019-04-01T02:07:14.261Z,17.40
2019-04-01T02:12:29.832Z,17.30
2019-04-01T02:17:45.389Z,17.20
2019-04-01T02:23:00.810Z,17.10
2019-04-01T02:28:16.562Z,17.00
2019-04-01T02:33:32.436Z,17.00
2019-04-01T02:38:48.394Z,16.90
2019-04-01T02:44:03.983Z,16.80
2019-04-01T02:49:19.559Z,16.70
2019-04-01T02:54:35.299Z,16.60
2019-04-01T02:59:50.910Z,16.50
2019-04-01T03:05:06.409Z,16.50
2019-04-01T03:10:22.114Z,16.40
2019-04-01T03:15:37.788Z,16.30
2019-04-01T03:20:53.246Z,16.20
2019-04-01T03:26:09.720Z,16.20
2019-04-01T03:31:25.775Z,16.10
2019-04-01T03:36:42.714Z,16.00
2019-04-01T03:41:59.886Z,15.90
2019-04-01T03:47:15.898Z,15.80
2019-04-01T03:52:31.775Z,15.80
2019-04-01T03:57:47.414Z,15.70
2019-04-01T04:03:02.999Z,15.60
2019-04-01T04:08:19.195Z,15.50
2019-04-01T04:13:35.857Z,15.50
2019-04-01T04:18:51.318Z,15.40
2019-04-01T04:24:07.246Z,15.30
2019-04-01T04:29:24.004Z,15.20
2019-04-01T04:34:41.147Z,15.20
2019-04-01T04:39:59.487Z,15.10
2019-04-01T04:45:15.298Z,15.00
2019-04-01T04:50:31.205Z,14.90
2019-04-01T04:55:47.316Z,14.80
2019-04-01T05:01:03.026Z,14.80
2019-04-01T05:06:18.935Z,14.70
2019-04-01T05:11:34.813Z,14.70
2019-04-01T05:16:50.392Z,14.60
2019-04-01T05:22:06.347Z,14.50
2019-04-01T05:27:26.446Z,14.40
2019-04-01T05:32:42.729Z,14.40
2019-04-01T05:37:58.599Z,14.30
2019-04-01T05:43:14.293Z,14.30
2019-04-01T05:48:32.083Z,14.20
2019-04-01T05:53:48.665Z,14.10
2019-04-01T05:59:04.221Z,14.10
2019-04-01T06:04:19.770Z,14.00
2019-04-01T06:09:35.456Z,13.90
2019-04-01T06:14:51.149Z,13.90
2019-04-01T06:20:07.070Z,13.80
2019-04-01T06:25:22.767Z,13.80
2019-04-01T06:30:38.750Z,13.70
2019-04-01T06:35:55.745Z,13.70
2019-04-01T06:41:11.611Z,13.60
2019-04-01T06:46:27.557Z,13.60
2019-04-01T06:51:43.501Z,13.50
2019-04-01T06:56:59.147Z,13.50
2019-04-01T07:02:15.094Z,13.40
2019-04-01T07:07:30.880Z,13.40
2019-04-01T07:12:46.655Z,13.30
2019-04-01T07:18:02.545Z,13.30
2019-04-01T07:23:18.391Z,13.30
2019-04-01T07:28:34.195Z,13.30
2019-04-01T07:33:50.099Z,13.30
2019-04-01T07:39:07.083Z,13.30
2019-04-01T07:44:23.376Z,13.30
2019-04-01T07:49:39.161Z,13.30
2019-04-01T07:54:58.830Z,13.30
2019-04-01T08:00:15.848Z,13.30
2019-04-01T08:05:31.969Z,13.30
2019-04-01T08:10:47.913Z,13.30
2019-04-01T08:16:03.573Z,13.40
2019-04-01T08:21:19.038Z,13.40
2019-04-01T08:26:34.871Z,13.40
2019-04-01T08:31:50.944Z,13.40
2019-04-01T08:37:06.827Z,13.50
2019-04-01T08:42:22.574Z,13.40
2019-04-01T08:47:38.513Z,13.40
2019-04-01T08:52:54.542Z,13.50
2019-04-01T08:58:10.647Z,13.50
2019-04-01T09:03:26.100Z,13.60
2019-04-01T09:08:43.424Z,13.70
2019-04-01T09:13:59.521Z,13.70
2019-04-01T09:19:15.354Z,13.80
2019-04-01T09:24:31.055Z,13.90
2019-04-01T09:29:46.963Z,14.00
2019-04-01T09:35:02.645Z,14.20
2019-04-01T09:40:18.525Z,14.30
2019-04-01T09:45:34.318Z,14.40
2019-04-01T09:50:49.778Z,14.60
2019-04-01T09:56:05.622Z,14.60
2019-04-01T10:01:21.360Z,14.80
2019-04-01T10:06:37.388Z,14.90
2019-04-01T10:11:53.397Z,15.00
2019-04-01T10:17:10.881Z,15.20
2019-04-01T10:22:26.742Z,15.40
2019-04-01T10:27:42.739Z,15.50
2019-04-01T10:33:01.759Z,15.70
2019-04-01T10:38:15.531Z,15.90
2019-04-01T10:43:31.296Z,16.10
2019-04-01T10:48:47.289Z,16.30
2019-04-01T10:54:06.808Z,16.50
2019-04-01T10:59:22.877Z,16.80
2019-04-01T11:04:38.748Z,16.90
2019-04-01T11:09:54.771Z,17.10
2019-04-01T11:15:15.643Z,17.30
2019-04-01T11:20:30.746Z,17.50
2019-04-01T11:25:46.401Z,17.70
2019-04-01T11:31:02.386Z,17.90
2019-04-01T11:36:21.235Z,18.10
2019-04-01T11:41:37.071Z,18.40
2019-04-01T11:46:53.579Z,18.60
2019-04-01T11:52:09.502Z,18.80
2019-04-01T11:57:25.615Z,19.00
2019-04-01T12:02:41.790Z,19.20
2019-04-01T12:07:57.500Z,19.40
2019-04-01T12:13:13.210Z,19.50
2019-04-01T12:18:28.988Z,19.60
2019-04-01T12:23:44.513Z,19.70
2019-04-01T12:29:00.237Z,19.80
2019-04-01T12:34:16.909Z,19.80
2019-04-01T12:39:33.781Z,20.00
2019-04-01T12:44:49.486Z,20.20
2019-04-01T12:50:05.674Z,20.50
2019-04-01T12:55:21.373Z,20.60
2019-04-01T13:00:37.059Z,20.60
2019-04-01T13:05:53.258Z,20.50
2019-04-01T13:11:10.048Z,20.50
2019-04-01T13:16:25.831Z,20.50
2019-04-01T13:21:41.564Z,20.60
2019-04-01T13:26:57.329Z,20.60
2019-04-01T13:32:12.953Z,20.50
2019-04-01T13:37:28.582Z,20.60
2019-04-01T13:42:45.772Z,20.60
2019-04-01T13:48:01.247Z,20.50
2019-04-01T13:53:17.010Z,20.40
2019-04-01T13:58:32.773Z,20.50
2019-04-01T14:03:48.728Z,20.70
2019-04-01T14:09:06.427Z,20.70
2019-04-01T14:14:23.741Z,20.80
2019-04-01T14:19:39.436Z,21.10
2019-04-01T14:24:55.263Z,21.10
2019-04-01T14:30:11.293Z,21.00
2019-04-01T14:35:28.537Z,21.00
2019-04-01T14:40:46.456Z,20.70
2019-04-01T14:46:03.005Z,20.70
2019-04-01T14:51:18.786Z,20.80
2019-04-01T14:56:37.737Z,21.00
2019-04-01T15:01:53.279Z,21.20
2019-04-01T15:07:09.129Z,21.50
2019-04-01T15:12:24.807Z,21.60
2019-04-01T15:17:40.814Z,21.60
2019-04-01T15:22:56.650Z,21.50
2019-04-01T15:28:13.080Z,21.30
2019-04-01T15:33:29.240Z,21.10
2019-04-01T15:38:44.838Z,21.00
2019-04-01T15:44:00.501Z,20.80
2019-04-01T15:49:24.771Z,20.80
2019-04-01T15:54:40.588Z,20.70
2019-04-01T15:59:57.269Z,20.60
2019-04-01T16:05:13.017Z,20.60
2019-04-01T16:10:29.497Z,20.60
2019-04-01T16:15:45.463Z,20.40
2019-04-01T16:21:04.508Z,20.40
2019-04-01T16:26:20.337Z,20.40
2019-04-01T16:31:36.486Z,20.20
2019-04-01T16:36:54.870Z,20.20
2019-04-01T16:42:12.552Z,20.20
2019-04-01T16:47:28.130Z,20.50
2019-04-01T16:52:44.027Z,21.00
2019-04-01T16:57:59.682Z,21.50
2019-04-01T17:03:16.647Z,22.00
2019-04-01T17:08:39.161Z,22.40
2019-04-01T17:13:55.962Z,22.90
2019-04-01T17:19:18.033Z,23.30
2019-04-01T17:24:33.586Z,23.60
2019-04-01T17:29:51.308Z,23.90
2019-04-01T17:35:07.213Z,24.20
2019-04-01T17:40:23.089Z,24.30
2019-04-01T17:45:41.755Z,24.50
2019-04-01T17:50:58.111Z,24.50
2019-04-01T18:01:43.669Z,24.60
2019-04-01T18:06:59.397Z,24.60
2019-04-01T18:12:15.923Z,24.60
2019-04-01T18:17:34.919Z,24.60
2019-04-01T18:22:52.811Z,24.60
2019-04-01T18:28:13.077Z,24.50
2019-04-01T18:33:39.371Z,24.50
2019-04-01T18:38:55.757Z,24.40
2019-04-01T18:44:13.075Z,24.30
2019-04-01T18:49:29.238Z,24.20
2019-04-01T18:54:45.260Z,24.10
2019-04-01T19:00:00.839Z,24.10
2019-04-01T19:05:19.492Z,24.00
2019-04-01T19:10:39.080Z,23.90
2019-04-01T19:15:53.774Z,23.80
2019-04-01T19:21:10.172Z,23.70
2019-04-01T19:26:27.367Z,23.60
2019-04-01T19:31:43.322Z,23.60
2019-04-01T19:36:59.336Z,23.40
2019-04-01T19:42:15.062Z,23.30
2019-04-01T19:47:34.166Z,23.20
2019-04-01T19:52:52.412Z,23.10
2019-04-01T19:58:08.363Z,23.00
2019-04-01T20:03:25.375Z,23.00
2019-04-01T20:08:41.671Z,22.90
2019-04-01T20:14:00.699Z,22.70
2019-04-01T20:19:16.822Z,22.70
2019-04-01T20:24:33.653Z,22.50
2019-04-01T20:29:57.552Z,22.40
2019-04-01T20:35:23.826Z,22.30
2019-04-01T20:40:36.203Z,22.30
2019-04-01T20:45:52.974Z,22.10
2019-04-01T20:51:25.887Z,22.00
2019-04-01T20:56:45.169Z,22.00
2019-04-01T21:02:01.056Z,21.90
2019-04-01T21:07:18.424Z,21.80
2019-04-01T21:12:45.691Z,21.70
2019-04-01T21:17:59.997Z,21.60
2019-04-01T21:23:16.478Z,21.50
2019-04-01T21:28:32.731Z,21.40
2019-04-01T21:33:48.617Z,21.30
2019-04-01T21:39:08.006Z,21.10
2019-04-01T21:44:23.853Z,21.10
2019-04-01T21:49:39.595Z,21.00
2019-04-01T21:54:59.002Z,20.90
2019-04-01T22:00:28.639Z,20.80
2019-04-01T22:06:01.109Z,20.70
2019-04-01T22:11:19.840Z,20.60
2019-04-01T22:16:39.350Z,20.40
2019-04-01T22:21:57.090Z,20.40
2019-04-01T22:27:17.334Z,20.30
2019-04-01T22:32:36.749Z,20.20
2019-04-01T22:38:03.517Z,20.10
2019-04-01T22:43:19.780Z,20.00
2019-04-01T22:48:35.454Z,19.90
2019-04-01T22:53:51.432Z,19.80
2019-04-01T22:59:07.867Z,19.70
2019-04-01T23:04:26.708Z,19.60
2019-04-01T23:09:44.393Z,19.50
2019-04-01T23:15:01.727Z,19.40
2019-04-01T23:20:19.992Z,19.30
2019-04-01T23:25:35.757Z,19.20
2019-04-01T23:30:51.827Z,19.10
2019-04-01T23:36:07.783Z,19.10
2019-04-01T23:41:24.780Z,19.00
2019-04-01T23:46:54.526Z,18.90
2019-04-01T23:52:13.603Z,18.80
2019-04-01T23:57:29.172Z,18.70
